Time;durP1;ratioP1;P1;durP2;ratioP2;P2;SDS_P1;SDS_P2;PMS_P1;PMS_P2;Temp;Humidity;BMP_temperature;BMP_pressure;BME280_temperature;BME280_humidity;BME280_pressure;Samples;Min_cycle;Max_cycle;Signal;HPM_P1;HPM_P2
2021/10/21 00:01:03;;;;;;;9.00;2.53;;;;;;;;;;10540122;28;20029;-84
2021/10/21 00:06:03;;;;;;;1.83;1.73;;;;;;;;;;10548045;28;20278;-84
2021/10/21 00:11:03;;;;;;;8.73;1.90;;;;;;;;;;10521595;28;20084;-83
2021/10/21 00:16:04;;;;;;;10.70;2.40;;;;;;;;;;10489692;28;20171;-82
2021/10/21 00:21:05;;;;;;;3.45;2.28;;;;;;;;;;10505941;28;20025;-83
2021/10/21 00:26:07;;;;;;;2.92;1.90;;;;;;;;;;10505735;28;20037;-83
2021/10/21 00:31:07;;;;;;;2.03;1.63;;;;;;;;;;10506007;28;20113;-80
2021/10/21 00:36:07;;;;;;;2.85;1.65;;;;;;;;;;10505467;28;20470;-80
2021/10/21 00:41:13;;;;;;;13.48;2.78;;;;;;;;;;10504887;28;20031;-80
2021/10/21 00:46:14;;;;;;;9.30;2.53;;;;;;;;;;10488125;28;20044;-80
2021/10/21 00:51:15;;;;;;;4.60;2.55;;;;;;;;;;10504330;28;20024;-81
2021/10/21 00:56:18;;;;;;;15.33;3.40;;;;;;;;;;10506494;28;20025;-80
2021/10/21 01:01:18;;;;;;;6.20;1.70;;;;;;;;;;10504733;28;20253;-80
2021/10/21 01:06:19;;;;;;;8.85;3.67;;;;;;;;;;10484892;28;20032;-83
2021/10/21 01:11:19;;;;;;;3.85;2.13;;;;;;;;;;10501907;28;20501;-83
2021/10/21 01:16:20;;;;;;;10.00;2.27;;;;;;;;;;10501802;28;20464;-81
2021/10/21 01:21:20;;;;;;;11.75;2.35;;;;;;;;;;10502162;28;20258;-82
2021/10/21 01:26:20;;;;;;;5.13;2.50;;;;;;;;;;10502034;28;20082;-83
2021/10/21 01:31:20;;;;;;;11.00;2.70;;;;;;;;;;10503215;28;20036;-84
2021/10/21 01:36:21;;;;;;;4.78;2.92;;;;;;;;;;10502824;28;20036;-82
2021/10/21 01:41:21;;;;;;;8.90;3.42;;;;;;;;;;10502086;28;20524;-83
2021/10/21 01:46:21;;;;;;;5.50;2.35;;;;;;;;;;10501968;28;20111;-82
2021/10/21 01:51:21;;;;;;;4.95;2.38;;;;;;;;;;10500513;28;20039;-81
2021/10/21 01:56:23;;;;;;;6.25;2.28;;;;;;;;;;10499677;28;20029;-81
2021/10/21 02:01:24;;;;;;;5.63;1.25;;;;;;;;;;10501255;28;20058;-80
2021/10/21 02:06:24;;;;;;;6.25;2.08;;;;;;;;;;10500078;28;20071;-81
2021/10/21 02:11:24;;;;;;;3.25;1.48;;;;;;;;;;10500941;28;20056;-81
2021/10/21 02:16:24;;;;;;;4.47;2.13;;;;;;;;;;10498854;28;20119;-80
2021/10/21 02:21:25;;;;;;;5.07;1.50;;;;;;;;;;10497746;28;20527;-80
2021/10/21 02:26:25;;;;;;;6.60;2.05;;;;;;;;;;10500358;28;20025;-81
2021/10/21 02:31:25;;;;;;;1.20;1.10;;;;;;;;;;10500351;28;20447;-81
2021/10/21 02:36:29;;;;;;;5.33;2.57;;;;;;;;;;10500487;28;20480;-81
2021/10/21 02:41:29;;;;;;;3.08;1.55;;;;;;;;;;10498553;28;20265;-82
2021/10/21 02:46:29;;;;;;;9.43;2.42;;;;;;;;;;10498014;28;20373;-81
2021/10/21 02:51:29;;;;;;;4.55;2.63;;;;;;;;;;10498674;28;20111;-80
2021/10/21 02:56:30;;;;;;;5.88;2.60;;;;;;;;;;10499871;28;20032;-81
2021/10/21 03:01:36;;;;;;;9.48;2.58;;;;;;;;;;10499018;28;20033;-81
2021/10/21 03:07:26;;;;;;;4.32;2.08;;;;;;;;;;10499030;28;20036;-80
2021/10/21 03:12:04;;;;;;;8.27;2.75;;;;;;;;;;10490403;28;20048;-81
2021/10/21 03:17:04;;;;;;;5.40;1.88;;;;;;;;;;10499741;28;20032;-81
2021/10/21 03:22:07;;;;;;;4.60;1.60;;;;;;;;;;10496909;28;20040;-81
2021/10/21 03:27:08;;;;;;;4.45;2.35;;;;;;;;;;10497202;28;20021;-80
2021/10/21 03:32:08;;;;;;;7.13;2.53;;;;;;;;;;10480397;28;20112;-80
2021/10/21 03:37:10;;;;;;;4.03;2.25;;;;;;;;;;10497425;28;20044;-80
2021/10/21 03:42:10;;;;;;;3.58;2.25;;;;;;;;;;10496928;28;20028;-79
2021/10/21 03:47:11;;;;;;;5.53;2.15;;;;;;;;;;10497826;28;20032;-80
2021/10/21 03:52:11;;;;;;;7.87;2.57;;;;;;;;;;10504193;28;20032;-80
2021/10/21 03:57:11;;;;;;;7.28;2.10;;;;;;;;;;10506655;28;20265;-80
2021/10/21 04:02:12;;;;;;;10.60;2.30;;;;;;;;;;10507462;28;20074;-80
2021/10/21 04:07:17;;;;;;;10.70;3.47;;;;;;;;;;10506576;28;20028;-80
2021/10/21 04:12:18;;;;;;;5.20;3.13;;;;;;;;;;10506827;28;20098;-80
2021/10/21 04:17:19;;;;;;;6.93;2.15;;;;;;;;;;10504822;28;20024;-79
2021/10/21 04:22:20;;;;;;;11.90;1.83;;;;;;;;;;10504438;28;20111;-81
2021/10/21 04:27:20;;;;;;;7.18;1.73;;;;;;;;;;10503517;28;20115;-82
2021/10/21 04:32:23;;;;;;;12.93;3.07;;;;;;;;;;10462831;28;20041;-82
2021/10/21 04:37:24;;;;;;;16.45;3.80;;;;;;;;;;10502815;28;20289;-81
2021/10/21 04:42:24;;;;;;;17.70;4.45;;;;;;;;;;10503925;28;20543;-82
2021/10/21 04:47:25;;;;;;;14.07;3.63;;;;;;;;;;10502703;28;20037;-82
2021/10/21 04:52:25;;;;;;;11.55;5.07;;;;;;;;;;10502856;28;20040;-78
2021/10/21 04:57:25;;;;;;;3.47;1.80;;;;;;;;;;10499414;28;20476;-80
2021/10/21 05:02:25;;;;;;;11.00;3.92;;;;;;;;;;10484855;28;20085;-82
2021/10/21 05:07:25;;;;;;;12.57;4.15;;;;;;;;;;10461333;28;20037;-82
2021/10/21 05:12:26;;;;;;;10.52;3.90;;;;;;;;;;10459783;28;20547;-80
2021/10/21 05:17:26;;;;;;;9.35;4.35;;;;;;;;;;10460717;28;20052;-78
2021/10/21 05:22:27;;;;;;;12.95;3.80;;;;;;;;;;10461154;28;20111;-79
2021/10/21 05:27:27;;;;;;;14.40;4.80;;;;;;;;;;10459622;28;20033;-80
2021/10/21 05:32:27;;;;;;;19.33;4.53;;;;;;;;;;10459451;28;20449;-79
2021/10/21 05:37:27;;;;;;;17.58;4.05;;;;;;;;;;10461097;28;20055;-80
2021/10/21 05:42:28;;;;;;;18.08;4.70;;;;;;;;;;10461276;28;20078;-80
2021/10/21 05:47:28;;;;;;;25.73;5.32;;;;;;;;;;10460084;28;20041;-82
2021/10/21 05:52:28;;;;;;;6.63;2.87;;;;;;;;;;10460139;28;20028;-81
2021/10/21 05:57:28;;;;;;;7.95;2.92;;;;;;;;;;10460913;28;20738;-80
2021/10/21 06:02:29;;;;;;;17.00;3.03;;;;;;;;;;10459112;28;20033;-81
2021/10/21 06:07:29;;;;;;;11.35;3.35;;;;;;;;;;10459537;28;20033;-82
2021/10/21 06:12:30;;;;;;;8.82;3.25;;;;;;;;;;10459822;28;20082;-81
2021/10/21 06:17:33;;;;;;;9.70;3.08;;;;;;;;;;10459491;28;20032;-78
2021/10/21 06:22:33;;;;;;;14.50;4.80;;;;;;;;;;10458615;28;20032;-78
2021/10/21 06:27:34;;;;;;;17.85;6.22;;;;;;;;;;10461058;28;20082;-78
2021/10/21 06:32:34;;;;;;;21.60;6.68;;;;;;;;;;10468976;28;20485;-76
2021/10/21 06:37:34;;;;;;;6.20;3.55;;;;;;;;;;10486509;28;20082;-80
2021/10/21 06:42:34;;;;;;;3.90;3.55;;;;;;;;;;10466404;28;20123;-81
2021/10/21 06:47:35;;;;;;;12.90;3.88;;;;;;;;;;10466979;28;20041;-80
2021/10/21 06:52:37;;;;;;;6.30;3.67;;;;;;;;;;10460516;28;20167;-81
2021/10/21 06:57:47;;;;;;;13.57;3.55;;;;;;;;;;10458096;28;20469;-81
2021/10/21 07:02:48;;;;;;;4.03;1.63;;;;;;;;;;10457485;28;20025;-82
2021/10/21 07:07:48;;;;;;;21.13;3.97;;;;;;;;;;10458030;28;20120;-82
2021/10/21 07:12:48;;;;;;;21.85;4.75;;;;;;;;;;10458713;28;20047;-82
2021/10/21 07:17:48;;;;;;;15.87;3.67;;;;;;;;;;10458457;28;20036;-81
2021/10/21 07:22:49;;;;;;;20.30;3.17;;;;;;;;;;10456239;28;20345;-82
2021/10/21 07:27:49;;;;;;;12.63;3.22;;;;;;;;;;10464645;28;20055;-82
2021/10/21 07:32:50;;;;;;;10.18;4.07;;;;;;;;;;10464915;28;20021;-83
2021/10/21 07:37:50;;;;;;;12.07;4.75;;;;;;;;;;10448382;28;20021;-82
2021/10/21 07:42:50;;;;;;;8.57;2.05;;;;;;;;;;10466446;28;20033;-82
2021/10/21 07:47:50;;;;;;;27.02;2.85;;;;;;;;;;10476209;28;20025;-83
2021/10/21 07:52:51;;;;;;;8.27;2.58;;;;;;;;;;10465862;28;20071;-81
2021/10/21 07:57:51;;;;;;;7.22;2.67;;;;;;;;;;10465109;28;20083;-81
2021/10/21 08:02:51;;;;;;;5.22;2.08;;;;;;;;;;10465344;28;20461;-82
2021/10/21 08:07:51;;;;;;;5.88;2.97;;;;;;;;;;10465891;28;20061;-80
2021/10/21 08:12:52;;;;;;;6.35;2.28;;;;;;;;;;10465293;28;20107;-82
2021/10/21 08:17:54;;;;;;;4.07;3.20;;;;;;;;;;10465888;28;20032;-82
2021/10/21 08:22:54;;;;;;;37.05;4.95;;;;;;;;;;10463843;28;20284;-81
2021/10/21 08:27:54;;;;;;;20.90;5.07;;;;;;;;;;10462248;28;20033;-81
2021/10/21 08:32:57;;;;;;;4.13;2.30;;;;;;;;;;10463503;28;20041;-81
2021/10/21 08:37:58;;;;;;;3.90;1.98;;;;;;;;;;10462059;28;20024;-81
2021/10/21 08:43:00;;;;;;;4.03;2.42;;;;;;;;;;10453175;28;20032;-81
2021/10/21 08:48:03;;;;;;;18.20;3.47;;;;;;;;;;10467855;28;20060;-81
2021/10/21 08:53:03;;;;;;;9.57;2.35;;;;;;;;;;10462137;28;20033;-82
2021/10/21 08:58:04;;;;;;;7.28;2.45;;;;;;;;;;10462777;28;20029;-81
2021/10/21 09:03:06;;;;;;;5.25;4.05;;;;;;;;;;10463776;28;20088;-81
2021/10/21 09:08:07;;;;;;;20.13;3.67;;;;;;;;;;10469875;28;20056;-83
2021/10/21 09:13:07;;;;;;;22.58;3.25;;;;;;;;;;10463067;28;20033;-80
2021/10/21 09:18:14;;;;;;;10.60;3.42;;;;;;;;;;10461158;28;20431;-81
2021/10/21 09:23:16;;;;;;;10.90;2.63;;;;;;;;;;10461338;28;20514;-82
2021/10/21 09:28:17;;;;;;;11.27;2.72;;;;;;;;;;10460473;28;20029;-81
2021/10/21 09:33:18;;;;;;;7.70;2.85;;;;;;;;;;10462539;28;20400;-81
2021/10/21 09:38:18;;;;;;;4.53;2.53;;;;;;;;;;10444495;28;20039;-81
2021/10/21 09:43:26;;;;;;;2.83;1.70;;;;;;;;;;10460035;28;20036;-81
2021/10/21 09:48:26;;;;;;;6.03;2.10;;;;;;;;;;10460982;28;20029;-81
2021/10/21 09:53:31;;;;;;;9.88;1.83;;;;;;;;;;10460718;28;20166;-82
2021/10/21 09:58:39;;;;;;;4.65;2.67;;;;;;;;;;10459352;28;20021;-82
2021/10/21 10:03:40;;;;;;;4.72;2.15;;;;;;;;;;10459384;28;20415;-82
2021/10/21 10:08:41;;;;;;;15.18;3.17;;;;;;;;;;10444552;28;20089;-82
2021/10/21 10:13:41;;;;;;;15.18;2.92;;;;;;;;;;10475613;28;20020;-81
2021/10/21 10:18:43;;;;;;;14.93;3.15;;;;;;;;;;10461374;28;20056;-82
2021/10/21 10:23:55;;;;;;;15.68;3.88;;;;;;;;;;10458908;28;20025;-84
2021/10/21 10:28:55;;;;;;;6.82;2.28;;;;;;;;;;10460468;28;20060;-83
2021/10/21 10:33:55;;;;;;;1.02;1.02;;;;;;;;;;10460339;28;20033;-83
2021/10/21 10:39:01;;;;;;;13.45;1.95;;;;;;;;;;10459224;28;20032;-81
2021/10/21 10:44:01;;;;;;;4.07;1.80;;;;;;;;;;10459576;28;20032;-81
2021/10/21 10:49:13;;;;;;;10.48;3.95;;;;;;;;;;10440792;28;20025;-81
2021/10/21 10:54:25;;;;;;;9.27;2.70;;;;;;;;;;10457652;28;20108;-81
2021/10/21 10:59:29;;;;;;;4.50;3.08;;;;;;;;;;10458760;28;20029;-80
2021/10/21 11:04:48;;;;;;;4.53;1.85;;;;;;;;;;10450460;28;20024;-79
2021/10/21 11:09:49;;;;;;;2.90;1.73;;;;;;;;;;10464545;28;20052;-81
2021/10/21 11:14:55;;;;;;;2.42;2.22;;;;;;;;;;10466360;28;20104;-82
2021/10/21 11:19:56;;;;;;;3.58;2.08;;;;;;;;;;10466525;28;20395;-81
2021/10/21 11:24:58;;;;;;;4.13;2.47;;;;;;;;;;10471976;28;20045;-81
2021/10/21 11:30:15;;;;;;;5.68;2.72;;;;;;;;;;10448212;28;20032;-82
2021/10/21 11:35:17;;;;;;;5.32;2.28;;;;;;;;;;10466232;28;20033;-82
2021/10/21 11:40:34;;;;;;;3.92;2.00;;;;;;;;;;10465454;28;20036;-82
2021/10/21 11:45:38;;;;;;;23.42;2.15;;;;;;;;;;10466346;28;20104;-82
2021/10/21 11:50:39;;;;;;;6.32;2.65;;;;;;;;;;10465638;28;20041;-82
2021/10/21 11:55:40;;;;;;;5.22;3.45;;;;;;;;;;10448490;28;20352;-82
2021/10/21 12:00:41;;;;;;;5.47;2.65;;;;;;;;;;10465698;28;20104;-82
2021/10/21 12:05:42;;;;;;;18.85;4.38;;;;;;;;;;10464934;28;20037;-82
2021/10/21 12:10:46;;;;;;;7.20;2.03;;;;;;;;;;10464424;28;20057;-82
2021/10/21 12:15:47;;;;;;;10.20;2.72;;;;;;;;;;10467205;28;20029;-82
2021/10/21 12:20:52;;;;;;;3.10;2.13;;;;;;;;;;10465131;28;20032;-82
2021/10/21 12:25:53;;;;;;;4.57;1.85;;;;;;;;;;10468327;28;20025;-82
2021/10/21 12:30:53;;;;;;;7.43;1.70;;;;;;;;;;10468555;28;20056;-82
2021/10/21 12:35:54;;;;;;;7.28;2.67;;;;;;;;;;10470589;28;20040;-83
2021/10/21 12:41:01;;;;;;;13.50;3.75;;;;;;;;;;10477192;28;20092;-83
2021/10/21 12:46:03;;;;;;;10.90;2.53;;;;;;;;;;10466490;28;20035;-82
2021/10/21 12:51:07;;;;;;;3.42;2.13;;;;;;;;;;10469111;28;20079;-82
2021/10/21 12:56:11;;;;;;;7.45;1.90;;;;;;;;;;10468515;28;20526;-83
2021/10/21 13:01:11;;;;;;;18.83;2.58;;;;;;;;;;10474959;28;20013;-83
2021/10/21 13:06:12;;;;;;;8.73;2.38;;;;;;;;;;10476738;28;20040;-82
2021/10/21 13:11:20;;;;;;;5.25;2.42;;;;;;;;;;10501359;28;20057;-83
2021/10/21 13:16:20;;;;;;;10.93;3.53;;;;;;;;;;10506456;28;20020;-84
2021/10/21 13:21:21;;;;;;;16.95;4.47;;;;;;;;;;10506438;28;20059;-82
2021/10/21 13:26:21;;;;;;;7.07;3.05;;;;;;;;;;10495208;28;20612;-82
2021/10/21 13:31:21;;;;;;;15.85;3.90;;;;;;;;;;10475822;28;20052;-83
2021/10/21 13:36:22;;;;;;;16.73;7.30;;;;;;;;;;10466956;28;20033;-84
2021/10/21 13:41:22;;;;;;;27.75;6.07;;;;;;;;;;10467785;28;20013;-85
2021/10/21 13:46:23;;;;;;;16.15;4.63;;;;;;;;;;10466479;28;20028;-83
2021/10/21 13:51:23;;;;;;;19.52;5.28;;;;;;;;;;10470988;28;20029;-84
2021/10/21 13:56:23;;;;;;;24.85;7.03;;;;;;;;;;10460699;28;20033;-84
2021/10/21 14:01:24;;;;;;;30.83;7.90;;;;;;;;;;10463836;28;20020;-85
2021/10/21 14:06:24;;;;;;;19.58;4.93;;;;;;;;;;10463492;28;20453;-85
2021/10/21 14:11:24;;;;;;;17.80;3.58;;;;;;;;;;10460767;28;20118;-83
2021/10/21 14:16:25;;;;;;;7.60;3.78;;;;;;;;;;10464142;28;20088;-84
2021/10/21 14:21:26;;;;;;;13.73;4.20;;;;;;;;;;10463499;28;20035;-84
2021/10/21 14:26:40;;;;;;;11.93;3.67;;;;;;;;;;10496779;28;20380;-85
2021/10/21 14:31:40;;;;;;;13.43;4.30;;;;;;;;;;10498676;28;20064;-85
2021/10/21 14:36:40;;;;;;;13.47;3.07;;;;;;;;;;10496729;28;20094;-85
2021/10/21 14:41:40;;;;;;;9.60;4.20;;;;;;;;;;10496555;28;20334;-85
2021/10/21 14:46:41;;;;;;;7.78;2.92;;;;;;;;;;10495581;28;20168;-85
2021/10/21 14:51:42;;;;;;;12.80;5.32;;;;;;;;;;10494311;28;20036;-85
2021/10/21 14:56:42;;;;;;;22.05;5.35;;;;;;;;;;10494217;28;20486;-85
2021/10/21 15:01:42;;;;;;;11.88;4.38;;;;;;;;;;10481324;28;20037;-85
2021/10/21 15:07:09;;;;;;;8.15;3.60;;;;;;;;;;10499124;28;20086;-85
2021/10/21 15:23:22;;;;;;;24.63;4.28;;;;;;;;;;10489317;28;20053;-85
2021/10/21 15:28:04;;;;;;;7.68;2.85;;;;;;;;;;10486623;28;20506;-86
2021/10/21 15:33:04;;;;;;;10.85;3.67;;;;;;;;;;10473578;28;20040;-85
2021/10/21 15:38:05;;;;;;;14.70;4.80;;;;;;;;;;10446269;28;20116;-86
2021/10/21 15:43:05;;;;;;;10.77;3.37;;;;;;;;;;10438269;28;20044;-85
2021/10/21 15:48:12;;;;;;;22.80;3.90;;;;;;;;;;10466070;28;20746;-85
2021/10/21 16:14:44;;;;;;;10.23;4.35;;;;;;;;;;10467529;28;20036;-85
2021/10/21 16:19:42;;;;;;;7.80;3.15;;;;;;;;;;10467795;28;20534;-85
2021/10/21 16:25:06;;;;;;;8.93;3.47;;;;;;;;;;10463511;28;20077;-84
2021/10/21 16:30:07;;;;;;;5.57;3.30;;;;;;;;;;10466857;28;20442;-84
2021/10/21 16:35:07;;;;;;;8.13;3.25;;;;;;;;;;10463562;28;20112;-85
2021/10/21 16:40:08;;;;;;;5.55;3.47;;;;;;;;;;10462701;28;20437;-85
2021/10/21 16:45:08;;;;;;;6.97;2.90;;;;;;;;;;10445443;28;20049;-85
2021/10/21 16:50:09;;;;;;;21.35;4.57;;;;;;;;;;10467129;28;20033;-85
2021/10/21 16:55:10;;;;;;;3.60;2.58;;;;;;;;;;10461110;28;20020;-84
2021/10/21 17:00:11;;;;;;;38.70;5.63;;;;;;;;;;10463118;28;20107;-85
2021/10/21 17:05:11;;;;;;;5.00;3.25;;;;;;;;;;10462371;28;20437;-85
2021/10/21 17:10:11;;;;;;;10.32;4.97;;;;;;;;;;10464430;28;20037;-84
2021/10/21 17:15:11;;;;;;;6.88;2.72;;;;;;;;;;10463122;28;20052;-84
2021/10/21 17:20:12;;;;;;;9.13;4.43;;;;;;;;;;10461509;28;20033;-84
2021/10/21 17:25:12;;;;;;;11.50;3.08;;;;;;;;;;10462372;28;20469;-84
2021/10/21 17:30:12;;;;;;;16.30;2.92;;;;;;;;;;10475259;28;20021;-85
2021/10/21 17:35:13;;;;;;;15.48;4.50;;;;;;;;;;10461544;28;20083;-85
2021/10/21 17:40:13;;;;;;;7.18;3.17;;;;;;;;;;10459862;28;20126;-85
2021/10/21 17:45:13;;;;;;;12.98;4.40;;;;;;;;;;10460309;28;20151;-85
2021/10/21 17:50:14;;;;;;;6.40;3.65;;;;;;;;;;10458375;28;20413;-85
2021/10/21 17:55:14;;;;;;;11.77;3.80;;;;;;;;;;10457757;28;20029;-85
2021/10/21 18:00:14;;;;;;;11.50;3.50;;;;;;;;;;10457884;28;20033;-85
2021/10/21 18:05:15;;;;;;;5.25;2.08;;;;;;;;;;10456772;28;20032;-85
2021/10/21 18:10:16;;;;;;;5.95;2.38;;;;;;;;;;10458153;28;20037;-85
2021/10/21 18:15:16;;;;;;;8.73;2.15;;;;;;;;;;10458064;28;20384;-85
2021/10/21 18:20:18;;;;;;;11.27;3.17;;;;;;;;;;10458849;28;20548;-85
2021/10/21 18:25:18;;;;;;;9.85;3.60;;;;;;;;;;10459221;28;20067;-85
2021/10/21 18:30:19;;;;;;;8.38;3.40;;;;;;;;;;10458811;28;20047;-85
2021/10/21 18:35:19;;;;;;;21.60;3.65;;;;;;;;;;10458347;28;20021;-86
2021/10/21 18:40:19;;;;;;;16.10;4.57;;;;;;;;;;10461971;28;20033;-84
2021/10/21 18:45:20;;;;;;;11.13;4.95;;;;;;;;;;10460040;28;20025;-85
2021/10/21 18:50:20;;;;;;;13.55;3.70;;;;;;;;;;10456900;28;20108;-85
2021/10/21 18:55:21;;;;;;;10.13;2.97;;;;;;;;;;10458276;28;20409;-85
2021/10/21 19:00:21;;;;;;;21.13;3.13;;;;;;;;;;10456099;28;20039;-85
2021/10/21 19:05:21;;;;;;;15.43;4.78;;;;;;;;;;10459082;28;20119;-85
2021/10/21 19:10:21;;;;;;;7.38;3.00;;;;;;;;;;10460373;28;20025;-83
2021/10/21 19:15:22;;;;;;;10.77;3.43;;;;;;;;;;10465346;28;20484;-83
2021/10/21 19:20:22;;;;;;;13.68;2.90;;;;;;;;;;10432186;28;20360;-86
2021/10/21 19:25:22;;;;;;;9.07;2.97;;;;;;;;;;10466535;28;20502;-85
2021/10/21 19:30:26;;;;;;;5.93;2.47;;;;;;;;;;10483365;28;20053;-86
2021/10/21 19:35:27;;;;;;;10.57;3.20;;;;;;;;;;10503898;28;20299;-86
2021/10/21 19:40:29;;;;;;;17.13;3.17;;;;;;;;;;10496959;28;20029;-84
2021/10/21 19:45:29;;;;;;;9.63;2.65;;;;;;;;;;10510188;28;20032;-86
2021/10/21 19:50:29;;;;;;;4.93;2.28;;;;;;;;;;10463826;28;20040;-85
2021/10/21 19:55:29;;;;;;;13.70;2.97;;;;;;;;;;10470479;28;20491;-86
2021/10/21 20:00:30;;;;;;;23.83;3.97;;;;;;;;;;10414136;28;20049;-84
2021/10/21 20:05:30;;;;;;;15.80;4.85;;;;;;;;;;10421701;28;20116;-86
2021/10/21 20:10:32;;;;;;;14.52;4.32;;;;;;;;;;10422178;28;20129;-85
2021/10/21 20:15:33;;;;;;;11.65;4.03;;;;;;;;;;10421176;28;20136;-84
2021/10/21 20:20:34;;;;;;;20.27;4.80;;;;;;;;;;10437754;28;20500;-86
2021/10/21 20:25:34;;;;;;;8.00;3.50;;;;;;;;;;10419915;28;20057;-85
2021/10/21 20:30:34;;;;;;;19.80;3.72;;;;;;;;;;10420504;28;20034;-85
2021/10/21 20:35:34;;;;;;;15.25;2.53;;;;;;;;;;10420575;28;20029;-85
2021/10/21 20:40:35;;;;;;;8.52;2.95;;;;;;;;;;10421942;28;20119;-86
2021/10/21 20:45:36;;;;;;;10.45;3.80;;;;;;;;;;10419631;28;20109;-86
2021/10/21 20:50:37;;;;;;;14.35;3.47;;;;;;;;;;10436208;28;20033;-86
2021/10/21 20:55:38;;;;;;;8.05;3.90;;;;;;;;;;10419892;28;20370;-86
2021/10/21 21:00:40;;;;;;;15.85;3.17;;;;;;;;;;10421276;28;20486;-86
2021/10/21 21:05:41;;;;;;;8.25;3.35;;;;;;;;;;10403504;28;20036;-86
2021/10/21 21:10:41;;;;;;;6.70;3.80;;;;;;;;;;10444051;28;20061;-85
2021/10/21 21:15:41;;;;;;;9.80;3.10;;;;;;;;;;10424016;28;20026;-85
2021/10/21 21:20:42;;;;;;;2.80;2.50;;;;;;;;;;10421003;28;20033;-86
2021/10/21 21:25:42;;;;;;;4.72;3.70;;;;;;;;;;10419858;28;20049;-86
2021/10/21 21:30:44;;;;;;;9.25;4.45;;;;;;;;;;10402150;28;20035;-86
2021/10/21 21:35:45;;;;;;;16.65;4.22;;;;;;;;;;10419095;28;20013;-86
2021/10/21 21:40:45;;;;;;;7.75;4.30;;;;;;;;;;10401643;28;20033;-85
2021/10/21 21:45:49;;;;;;;2.42;2.22;;;;;;;;;;10418485;28;20084;-85
2021/10/21 21:50:50;;;;;;;11.10;3.13;;;;;;;;;;10418233;28;20476;-85
2021/10/21 21:55:50;;;;;;;13.85;3.63;;;;;;;;;;10404213;28;20033;-86
2021/10/21 22:00:50;;;;;;;11.88;3.25;;;;;;;;;;10417977;28;20481;-85
2021/10/21 22:05:51;;;;;;;10.38;3.33;;;;;;;;;;10400947;28;20124;-85
2021/10/21 22:10:51;;;;;;;7.67;2.90;;;;;;;;;;10417183;28;20029;-86
2021/10/21 22:15:55;;;;;;;11.13;3.42;;;;;;;;;;10417553;28;20263;-85
2021/10/21 22:20:57;;;;;;;8.60;3.22;;;;;;;;;;10432245;28;20041;-85
2021/10/21 22:25:58;;;;;;;7.60;3.85;;;;;;;;;;10422891;28;20061;-86
2021/10/21 22:30:58;;;;;;;9.13;2.50;;;;;;;;;;10418504;28;20109;-86
2021/10/21 22:35:58;;;;;;;12.27;3.03;;;;;;;;;;10417887;28;20120;-86
2021/10/21 22:40:59;;;;;;;13.45;2.92;;;;;;;;;;10418244;28;20060;-85
2021/10/21 22:45:59;;;;;;;6.80;2.08;;;;;;;;;;10420684;28;20021;-85
2021/10/21 22:50:59;;;;;;;6.78;3.55;;;;;;;;;;10408678;28;20104;-85
2021/10/21 22:56:00;;;;;;;8.55;2.47;;;;;;;;;;10407066;28;20030;-86
2021/10/21 23:01:05;;;;;;;6.75;2.92;;;;;;;;;;10423975;28;20500;-85
2021/10/21 23:06:06;;;;;;;6.45;2.67;;;;;;;;;;10424445;28;20374;-86
2021/10/21 23:11:06;;;;;;;5.00;2.55;;;;;;;;;;10406579;28;20040;-86
2021/10/21 23:16:07;;;;;;;6.95;2.60;;;;;;;;;;10421519;28;20440;-86
2021/10/21 23:21:07;;;;;;;9.95;2.90;;;;;;;;;;10422420;28;20033;-85
2021/10/21 23:26:08;;;;;;;12.80;2.92;;;;;;;;;;10421455;28;20136;-84
2021/10/21 23:31:08;;;;;;;12.15;2.63;;;;;;;;;;10421879;28;20018;-86
2021/10/21 23:36:08;;;;;;;9.60;3.15;;;;;;;;;;10432652;28;20029;-85
2021/10/21 23:41:09;;;;;;;11.43;2.17;;;;;;;;;;10433025;28;20175;-86
2021/10/21 23:46:09;;;;;;;8.98;2.20;;;;;;;;;;10422730;28;20360;-86
2021/10/21 23:51:09;;;;;;;8.25;2.63;;;;;;;;;;10420453;28;20465;-86
2021/10/21 23:56:09;;;;;;;5.13;2.88;;;;;;;;;;10419875;28;20473;-86
